createdAt,value
2019-05-26T00:00:18.778Z,69.97
2019-05-26T00:00:53.045Z,68.62
2019-05-26T00:01:28.066Z,66.55
2019-05-26T00:02:02.979Z,60.20
2019-05-26T00:02:37.072Z,87.72
2019-05-26T00:03:11.952Z,81.75
2019-05-26T00:03:46.895Z,103.40
2019-05-26T00:04:20.924Z,102.75
2019-05-26T00:04:55.787Z,127.95
2019-05-26T00:05:30.456Z,103.50
2019-05-26T00:06:04.995Z,84.95
2019-05-26T00:06:39.660Z,93.47
2019-05-26T00:07:29.657Z,101.18
2019-05-26T00:07:50.703Z,108.80
2019-05-26T00:08:25.423Z,96.30
2019-05-26T00:09:00.330Z,112.65
2019-05-26T00:09:34.776Z,137.25
2019-05-26T00:10:10.395Z,99.13
2019-05-26T00:10:45.324Z,60.45
2019-05-26T00:11:19.674Z,62.23
2019-05-26T00:11:54.380Z,75.15
2019-05-26T00:12:29.158Z,75.37
2019-05-26T00:13:03.562Z,102.58
2019-05-26T00:13:38.509Z,96.72
2019-05-26T00:14:13.302Z,86.97
2019-05-26T00:14:47.427Z,78.83
2019-05-26T00:15:22.198Z,85.00
2019-05-26T00:15:57.114Z,76.12
2019-05-26T00:16:31.322Z,65.87
2019-05-26T00:17:06.223Z,59.53
2019-05-26T00:17:40.927Z,60.60
2019-05-26T00:18:15.578Z,85.53
2019-05-26T00:18:50.480Z,62.17
2019-05-26T00:19:25.301Z,78.57
2019-05-26T00:19:59.550Z,84.65
2019-05-26T00:20:34.424Z,89.50
2019-05-26T00:21:09.355Z,100.38
2019-05-26T00:21:43.894Z,72.00
2019-05-26T00:22:18.665Z,125.65
2019-05-26T00:22:53.693Z,349.27
2019-05-26T00:23:27.883Z,134.80
2019-05-26T00:24:02.778Z,316.52
2019-05-26T00:24:37.692Z,305.92
2019-05-26T00:25:12.533Z,87.22
2019-05-26T00:25:47.468Z,310.38
2019-05-26T00:26:22.435Z,138.00
2019-05-26T00:26:56.599Z,150.12
2019-05-26T00:27:31.433Z,47.23
2019-05-26T00:28:06.372Z,57.45
2019-05-26T00:28:40.736Z,65.80
2019-05-26T00:29:15.600Z,65.00
2019-05-26T00:29:50.344Z,72.42
2019-05-26T00:30:24.770Z,149.27
2019-05-26T00:30:59.778Z,152.87
2019-05-26T00:31:34.704Z,130.25
2019-05-26T00:32:08.996Z,145.75
2019-05-26T00:32:43.928Z,104.75
2019-05-26T00:33:18.627Z,66.53
2019-05-26T00:33:52.925Z,136.32
2019-05-26T00:34:27.700Z,171.10
2019-05-26T00:35:02.685Z,93.17
2019-05-26T00:35:36.780Z,53.48
2019-05-26T00:36:11.485Z,131.05
2019-05-26T00:36:46.295Z,248.95
2019-05-26T00:37:20.605Z,203.07
2019-05-26T00:37:55.516Z,626.85
2019-05-26T00:38:30.344Z,500.53
2019-05-26T00:39:06.127Z,198.65
2019-05-26T00:39:40.998Z,141.28
2019-05-26T00:40:16.251Z,1064.23
2019-05-26T00:40:50.734Z,1058.03
2019-05-26T00:41:25.664Z,765.08
2019-05-26T00:42:00.465Z,636.47
2019-05-26T00:42:34.782Z,439.27
2019-05-26T00:43:09.976Z,950.92
2019-05-26T00:43:45.018Z,1029.20
2019-05-26T00:44:19.426Z,651.25
2019-05-26T00:44:54.344Z,136.37
2019-05-26T00:45:29.172Z,51.37
2019-05-26T00:46:03.557Z,42.50
2019-05-26T00:46:38.332Z,57.15
2019-05-26T00:47:13.371Z,36.35
2019-05-26T00:47:48.499Z,37.60
2019-05-26T00:48:23.770Z,48.10
2019-05-26T00:48:58.465Z,43.73
2019-05-26T00:49:32.774Z,38.90
2019-05-26T00:50:08.746Z,46.02
2019-05-26T00:50:43.658Z,58.95
2019-05-26T00:51:17.831Z,78.17
2019-05-26T00:51:52.866Z,80.77
2019-05-26T00:52:27.781Z,98.87
2019-05-26T00:53:02.074Z,443.00
2019-05-26T00:53:37.197Z,397.67
2019-05-26T00:54:12.132Z,105.32
2019-05-26T00:54:46.535Z,424.65
2019-05-26T00:55:21.504Z,516.92
2019-05-26T00:55:56.182Z,329.32
2019-05-26T00:56:30.380Z,259.85
2019-05-26T00:57:05.445Z,117.28
2019-05-26T00:57:40.398Z,150.65
2019-05-26T00:58:14.631Z,369.32
2019-05-26T00:58:49.349Z,331.85
2019-05-26T00:59:24.283Z,43.55
2019-05-26T00:59:58.644Z,45.60
2019-05-26T01:00:41.106Z,46.30
2019-05-26T01:01:15.807Z,56.75
2019-05-26T01:01:50.245Z,51.45
2019-05-26T01:02:24.995Z,57.03
2019-05-26T01:02:59.865Z,49.10
2019-05-26T01:03:34.226Z,68.83
2019-05-26T01:04:09.025Z,61.68
2019-05-26T01:04:44.024Z,41.53
2019-05-26T01:05:18.633Z,50.98
2019-05-26T01:05:53.325Z,45.73
2019-05-26T01:06:28.014Z,42.23
2019-05-26T01:07:02.511Z,57.80
2019-05-26T01:07:37.908Z,55.52
2019-05-26T01:08:13.117Z,69.25
2019-05-26T01:08:47.589Z,83.78
2019-05-26T01:09:22.395Z,77.32
2019-05-26T01:09:57.338Z,84.35
2019-05-26T01:10:31.616Z,94.10
2019-05-26T01:11:06.523Z,41.95
2019-05-26T01:11:41.380Z,70.45
2019-05-26T01:12:15.724Z,59.77
2019-05-26T01:12:50.555Z,64.05
2019-05-26T01:13:25.318Z,91.80
2019-05-26T01:13:59.696Z,132.90
2019-05-26T01:14:34.633Z,292.50
2019-05-26T01:15:10.113Z,289.42
2019-05-26T01:15:44.422Z,371.15
2019-05-26T01:16:19.303Z,384.77
2019-05-26T01:16:56.043Z,615.30
2019-05-26T01:17:29.845Z,555.42
2019-05-26T01:18:05.784Z,406.55
2019-05-26T01:18:40.625Z,327.65
2019-05-26T01:19:14.945Z,321.13
2019-05-26T01:19:49.875Z,274.55
2019-05-26T01:20:24.924Z,173.62
2019-05-26T01:20:59.293Z,119.47
2019-05-26T01:21:33.936Z,151.02
2019-05-26T01:22:08.733Z,112.50
2019-05-26T01:22:42.955Z,88.52
2019-05-26T01:23:17.788Z,115.67
2019-05-26T01:23:52.618Z,156.40
2019-05-26T01:24:26.763Z,132.25
2019-05-26T01:25:01.407Z,100.90
2019-05-26T01:25:36.196Z,67.27
2019-05-26T01:26:10.315Z,47.62
2019-05-26T01:26:45.126Z,52.43
2019-05-26T01:27:20.025Z,50.15
2019-05-26T01:27:54.244Z,63.63
2019-05-26T01:28:29.162Z,58.70
2019-05-26T01:29:04.050Z,58.17
2019-05-26T01:29:38.652Z,79.03
2019-05-26T01:30:14.698Z,78.80
2019-05-26T01:30:49.855Z,68.37
2019-05-26T01:31:24.007Z,55.58
2019-05-26T01:31:58.911Z,62.35
2019-05-26T01:32:33.735Z,78.52
2019-05-26T01:33:08.559Z,91.02
2019-05-26T01:33:43.395Z,75.15
2019-05-26T01:34:18.459Z,68.33
2019-05-26T01:34:52.661Z,69.15
2019-05-26T01:35:27.591Z,93.12
2019-05-26T01:36:02.797Z,82.82
2019-05-26T01:36:37.081Z,79.58
2019-05-26T01:37:11.848Z,83.82
2019-05-26T01:37:47.515Z,88.82
2019-05-26T01:38:24.478Z,89.62
2019-05-26T01:39:00.135Z,106.52
2019-05-26T01:39:35.433Z,84.70
2019-05-26T01:40:10.344Z,59.45
2019-05-26T01:40:45.976Z,63.65
2019-05-26T01:41:20.808Z,118.10
2019-05-26T01:41:55.252Z,96.45
2019-05-26T01:42:29.938Z,70.95
2019-05-26T01:43:04.930Z,56.00
2019-05-26T01:43:39.155Z,54.05
2019-05-26T01:44:13.995Z,70.20
2019-05-26T01:44:48.846Z,91.87
2019-05-26T01:45:22.905Z,113.85
2019-05-26T01:45:57.714Z,114.42
2019-05-26T01:46:32.340Z,106.07
2019-05-26T01:47:06.734Z,97.97
2019-05-26T01:47:41.650Z,80.55
2019-05-26T01:48:16.379Z,103.30
2019-05-26T01:48:50.608Z,70.85
2019-05-26T01:49:25.511Z,82.17
2019-05-26T01:50:00.357Z,88.35
2019-05-26T01:50:34.635Z,98.30
2019-05-26T01:51:09.465Z,65.25
2019-05-26T01:51:44.235Z,86.65
2019-05-26T01:52:18.586Z,87.67
2019-05-26T01:52:53.346Z,75.52
2019-05-26T01:53:28.324Z,119.60
2019-05-26T01:54:02.673Z,90.72
2019-05-26T01:54:40.825Z,86.37
2019-05-26T01:55:14.191Z,95.20
2019-05-26T01:55:48.497Z,77.92
2019-05-26T01:56:23.236Z,65.67
2019-05-26T01:56:58.218Z,70.42
2019-05-26T01:57:32.603Z,78.40
2019-05-26T01:58:07.604Z,81.17
2019-05-26T01:58:42.432Z,67.05
2019-05-26T01:59:16.732Z,88.65
2019-05-26T01:59:51.832Z,62.88
2019-05-26T02:00:26.761Z,52.35
2019-05-26T02:01:00.905Z,82.65
2019-05-26T02:01:35.854Z,95.07
2019-05-26T02:02:10.833Z,99.25
2019-05-26T02:02:45.236Z,75.95
2019-05-26T02:03:20.141Z,95.25
2019-05-26T02:03:55.175Z,100.72
2019-05-26T02:04:29.580Z,94.95
2019-05-26T02:05:05.061Z,97.08
2019-05-26T02:05:39.994Z,99.17
2019-05-26T02:06:14.336Z,101.00
2019-05-26T02:06:49.254Z,110.22
2019-05-26T02:07:23.987Z,117.93
2019-05-26T02:07:58.478Z,112.37
2019-05-26T02:08:39.401Z,110.12
2019-05-26T02:09:10.140Z,103.15
2019-05-26T02:09:44.458Z,97.33
2019-05-26T02:10:19.410Z,86.50
2019-05-26T02:10:54.335Z,92.17
2019-05-26T02:11:28.512Z,83.67
2019-05-26T02:12:03.525Z,79.72
2019-05-26T02:12:38.534Z,78.65
2019-05-26T02:13:12.929Z,77.42
2019-05-26T02:13:47.894Z,81.42
2019-05-26T02:14:22.996Z,96.60
2019-05-26T02:14:57.295Z,104.05
2019-05-26T02:15:32.534Z,104.65
2019-05-26T02:16:07.614Z,110.80
2019-05-26T02:16:41.836Z,70.17
2019-05-26T02:17:16.774Z,90.03
2019-05-26T02:17:51.658Z,89.50
2019-05-26T02:18:26.188Z,77.30
2019-05-26T02:19:01.032Z,94.58
2019-05-26T02:19:36.023Z,85.72
2019-05-26T02:20:11.522Z,93.90
2019-05-26T02:20:46.551Z,72.27
2019-05-26T02:21:21.596Z,95.57
2019-05-26T02:21:56.035Z,106.20
2019-05-26T02:22:31.043Z,139.40
2019-05-26T02:23:06.118Z,128.82
2019-05-26T02:23:40.458Z,101.58
2019-05-26T02:24:15.302Z,85.80
2019-05-26T02:24:50.182Z,121.22
2019-05-26T02:25:24.953Z,108.35
2019-05-26T02:26:00.030Z,82.08
2019-05-26T02:26:34.912Z,106.80
2019-05-26T02:27:09.323Z,101.35
2019-05-26T02:27:44.285Z,64.67
2019-05-26T02:28:19.058Z,72.75
2019-05-26T02:28:53.280Z,67.55
2019-05-26T02:29:28.064Z,88.07
2019-05-26T02:30:03.142Z,64.27
2019-05-26T02:30:37.743Z,69.20
2019-05-26T02:31:12.574Z,71.65
2019-05-26T02:31:47.555Z,75.60
2019-05-26T02:32:21.825Z,81.45
2019-05-26T02:32:56.802Z,101.18
2019-05-26T02:33:31.677Z,117.93
2019-05-26T02:34:05.742Z,118.53
2019-05-26T02:34:40.538Z,128.32
2019-05-26T02:35:16.173Z,131.07
2019-05-26T02:35:50.308Z,132.03
2019-05-26T02:36:25.096Z,102.67
2019-05-26T02:36:59.884Z,100.25
2019-05-26T02:37:34.195Z,117.97
2019-05-26T02:38:09.176Z,129.72
2019-05-26T02:39:01.037Z,126.05
2019-05-26T02:39:19.984Z,96.20
2019-05-26T02:39:54.883Z,105.55
2019-05-26T02:40:29.775Z,90.72
2019-05-26T02:41:04.011Z,73.28
2019-05-26T02:41:39.228Z,74.12
2019-05-26T02:42:14.065Z,82.12
2019-05-26T02:42:48.338Z,78.75
2019-05-26T02:43:23.250Z,63.98
2019-05-26T02:43:58.066Z,65.75
2019-05-26T02:44:32.298Z,68.07
2019-05-26T02:45:08.709Z,78.07
2019-05-26T02:45:43.549Z,77.20
2019-05-26T02:46:18.212Z,59.67
2019-05-26T02:46:53.112Z,70.47
2019-05-26T02:47:28.030Z,85.10
2019-05-26T02:48:02.499Z,79.97
2019-05-26T02:48:37.445Z,96.70
2019-05-26T02:49:12.234Z,71.67
2019-05-26T02:49:46.535Z,83.05
2019-05-26T02:50:21.614Z,91.08
2019-05-26T02:50:56.560Z,125.72
2019-05-26T02:51:30.835Z,109.42
2019-05-26T02:52:05.912Z,88.03
2019-05-26T02:52:40.844Z,80.65
2019-05-26T02:53:15.398Z,66.10
2019-05-26T02:53:50.114Z,76.80
2019-05-26T02:54:24.722Z,120.65
2019-05-26T02:54:58.976Z,102.17
2019-05-26T02:55:33.854Z,76.17
2019-05-26T02:56:09.058Z,104.75
2019-05-26T02:56:43.614Z,238.82
2019-05-26T02:57:18.679Z,134.47
2019-05-26T02:57:53.508Z,301.73
2019-05-26T02:58:27.830Z,287.68
2019-05-26T02:59:02.870Z,394.70
2019-05-26T02:59:37.786Z,82.53
2019-05-26T03:00:12.775Z,96.12
2019-05-26T03:00:48.426Z,88.20
2019-05-26T03:01:23.717Z,154.18
2019-05-26T03:02:03.633Z,119.97
2019-05-26T03:02:35.200Z,110.50
2019-05-26T03:03:10.556Z,83.82
2019-05-26T03:03:45.047Z,73.20
2019-05-26T03:04:19.969Z,104.17
2019-05-26T03:04:55.115Z,75.92
2019-05-26T03:05:30.285Z,75.78
2019-05-26T03:06:05.875Z,93.42
2019-05-26T03:06:42.237Z,86.85
2019-05-26T03:07:18.608Z,77.22
2019-05-26T03:07:54.009Z,59.00
2019-05-26T03:08:29.872Z,66.62
2019-05-26T03:09:21.996Z,74.37
2019-05-26T03:09:43.839Z,68.90
2019-05-26T03:10:19.106Z,59.18
2019-05-26T03:10:54.280Z,67.75
2019-05-26T03:11:30.327Z,81.65
2019-05-26T03:12:06.128Z,95.17
2019-05-26T03:12:42.814Z,88.92
2019-05-26T03:13:18.535Z,103.02
2019-05-26T03:13:55.299Z,89.07
2019-05-26T03:14:32.864Z,104.78
2019-05-26T03:15:08.093Z,86.65
2019-05-26T03:15:46.160Z,89.97
2019-05-26T03:16:21.797Z,114.42
2019-05-26T03:16:59.116Z,163.77
2019-05-26T03:17:35.857Z,88.55
2019-05-26T03:18:10.162Z,84.42
2019-05-26T03:18:47.125Z,67.05
2019-05-26T03:19:23.606Z,71.53
2019-05-26T03:20:00.382Z,94.10
2019-05-26T03:20:40.125Z,85.60
2019-05-26T03:21:17.007Z,102.67
2019-05-26T03:21:54.341Z,81.05
2019-05-26T03:22:30.115Z,68.87
2019-05-26T03:23:07.050Z,68.15
2019-05-26T03:23:44.015Z,85.97
2019-05-26T03:24:21.495Z,67.70
2019-05-26T03:24:59.437Z,60.70
2019-05-26T03:25:36.203Z,46.08
2019-05-26T03:26:12.641Z,48.60
2019-05-26T03:26:47.527Z,43.30
2019-05-26T03:27:22.356Z,42.85
2019-05-26T03:27:57.256Z,44.90
2019-05-26T03:28:32.439Z,45.25
2019-05-26T03:29:06.886Z,42.17
2019-05-26T03:29:42.060Z,42.00
2019-05-26T03:30:17.198Z,46.55
2019-05-26T03:30:51.577Z,42.40
2019-05-26T03:31:26.683Z,46.53
2019-05-26T03:32:01.695Z,46.80
2019-05-26T03:32:36.154Z,49.00
2019-05-26T03:33:10.956Z,45.40
2019-05-26T03:33:45.724Z,54.50
2019-05-26T03:34:20.043Z,66.57
2019-05-26T03:34:55.033Z,80.65
2019-05-26T03:35:29.857Z,71.25
2019-05-26T03:36:04.285Z,79.27
2019-05-26T03:36:39.095Z,64.42
2019-05-26T03:37:13.846Z,78.40
2019-05-26T03:37:48.005Z,70.08
2019-05-26T03:38:22.999Z,66.82
2019-05-26T03:38:57.945Z,60.12
2019-05-26T03:39:44.791Z,53.52
2019-05-26T03:40:10.805Z,44.18
2019-05-26T03:40:45.776Z,45.90
2019-05-26T03:41:20.004Z,45.15
2019-05-26T03:41:54.983Z,44.70
2019-05-26T03:42:29.920Z,45.12
2019-05-26T03:43:04.419Z,44.23
2019-05-26T03:43:39.230Z,60.88
2019-05-26T03:44:13.966Z,59.10
2019-05-26T03:44:48.381Z,48.95
2019-05-26T03:45:34.860Z,54.03
2019-05-26T03:46:20.044Z,51.25
2019-05-26T03:46:54.419Z,52.27
2019-05-26T03:47:29.256Z,55.85
2019-05-26T03:48:04.372Z,45.40
2019-05-26T03:48:38.744Z,45.17
2019-05-26T03:49:13.589Z,56.68
2019-05-26T03:49:48.493Z,48.73
2019-05-26T03:50:22.935Z,49.90
2019-05-26T03:50:57.849Z,45.78
2019-05-26T03:51:32.813Z,57.80
2019-05-26T03:52:07.063Z,53.40
2019-05-26T03:52:41.869Z,58.28
2019-05-26T03:53:16.816Z,48.02
2019-05-26T03:53:51.186Z,46.10
2019-05-26T03:54:26.037Z,47.88
2019-05-26T03:55:00.809Z,40.30
2019-05-26T03:55:34.994Z,42.27
2019-05-26T03:56:10.035Z,47.80
2019-05-26T03:56:44.699Z,50.40
2019-05-26T03:57:19.054Z,49.15
2019-05-26T03:57:53.986Z,48.78
2019-05-26T03:58:28.794Z,54.05
2019-05-26T03:59:03.155Z,51.15
2019-05-26T03:59:37.937Z,52.03
2019-05-26T04:00:13.404Z,58.08
2019-05-26T04:00:47.697Z,58.13
2019-05-26T04:01:22.568Z,60.67
2019-05-26T04:01:57.981Z,51.73
2019-05-26T04:02:32.296Z,47.23
2019-05-26T04:03:07.116Z,42.73
2019-05-26T04:03:42.270Z,51.73
2019-05-26T04:04:16.560Z,47.10
2019-05-26T04:04:51.428Z,43.73
2019-05-26T04:05:26.170Z,42.78
2019-05-26T04:06:00.745Z,44.53
2019-05-26T04:06:35.696Z,40.67
2019-05-26T04:07:10.487Z,42.15
2019-05-26T04:07:44.708Z,40.00
2019-05-26T04:08:19.610Z,41.83
2019-05-26T04:08:54.471Z,39.73
2019-05-26T04:09:28.949Z,41.80
2019-05-26T04:10:06.056Z,38.45
2019-05-26T04:10:40.586Z,40.43
2019-05-26T04:11:14.954Z,39.05
2019-05-26T04:11:49.770Z,44.58
2019-05-26T04:12:24.655Z,37.58
2019-05-26T04:12:58.896Z,41.65
2019-05-26T04:13:33.917Z,41.02
2019-05-26T04:14:08.643Z,38.58
2019-05-26T04:14:43.018Z,42.10
2019-05-26T04:15:18.146Z,43.52
2019-05-26T04:15:53.276Z,41.02
2019-05-26T04:16:27.584Z,40.78
2019-05-26T04:17:02.455Z,40.38
2019-05-26T04:17:37.421Z,41.48
2019-05-26T04:18:11.828Z,37.00
2019-05-26T04:18:46.825Z,39.35
2019-05-26T04:19:21.697Z,39.23
2019-05-26T04:19:56.118Z,34.58
2019-05-26T04:20:30.986Z,38.00
2019-05-26T04:21:06.304Z,32.58
2019-05-26T04:21:40.624Z,31.37
2019-05-26T04:22:15.335Z,30.20
2019-05-26T04:22:50.300Z,31.23
2019-05-26T04:23:24.517Z,29.37
2019-05-26T04:23:59.567Z,29.80
2019-05-26T04:24:34.499Z,35.30
2019-05-26T04:25:08.950Z,37.60
2019-05-26T04:25:43.780Z,40.45
2019-05-26T04:26:18.411Z,44.95
2019-05-26T04:26:52.873Z,46.48
2019-05-26T04:27:27.649Z,41.42
2019-05-26T04:28:02.563Z,42.45
2019-05-26T04:28:36.820Z,43.75
2019-05-26T04:29:11.629Z,41.60
2019-05-26T04:29:46.511Z,41.70
2019-05-26T04:30:20.998Z,37.53
2019-05-26T04:30:56.032Z,29.45
2019-05-26T04:31:30.961Z,35.63
2019-05-26T04:32:05.472Z,36.17
2019-05-26T04:32:40.278Z,33.65
2019-05-26T04:33:15.436Z,32.53
2019-05-26T04:33:49.732Z,32.40
2019-05-26T04:34:24.664Z,35.85
2019-05-26T04:34:59.754Z,38.53
2019-05-26T04:35:34.163Z,46.95
2019-05-26T04:36:09.025Z,54.55
2019-05-26T04:36:43.790Z,43.95
2019-05-26T04:37:18.098Z,49.40
2019-05-26T04:37:53.216Z,50.45
2019-05-26T04:38:28.233Z,46.40
2019-05-26T04:39:02.615Z,46.23
2019-05-26T04:39:37.450Z,46.37
2019-05-26T04:40:26.649Z,49.00
2019-05-26T04:40:48.725Z,51.98
2019-05-26T04:41:23.578Z,52.17
2019-05-26T04:41:58.471Z,51.48
2019-05-26T04:42:32.885Z,52.88
2019-05-26T04:43:07.822Z,50.52
2019-05-26T04:43:42.743Z,51.92
2019-05-26T04:44:16.975Z,54.58
2019-05-26T04:44:51.725Z,54.13
2019-05-26T04:45:26.758Z,50.60
2019-05-26T04:46:01.184Z,50.45
2019-05-26T04:46:36.067Z,47.88
2019-05-26T04:47:10.983Z,48.02
2019-05-26T04:47:45.046Z,45.35
2019-05-26T04:48:19.932Z,45.40
2019-05-26T04:48:54.915Z,46.18
2019-05-26T04:49:29.278Z,46.58
2019-05-26T04:50:04.246Z,45.30
2019-05-26T04:50:39.156Z,45.15
2019-05-26T04:51:13.377Z,44.77
2019-05-26T04:51:48.264Z,43.65
2019-05-26T04:52:23.025Z,43.73
2019-05-26T04:53:06.129Z,43.65
2019-05-26T04:53:34.200Z,41.83
2019-05-26T04:54:08.945Z,45.92
2019-05-26T04:54:43.250Z,42.83
2019-05-26T04:55:18.376Z,46.55
2019-05-26T04:55:53.235Z,44.13
2019-05-26T04:56:27.335Z,41.60
2019-05-26T04:57:02.420Z,41.63
2019-05-26T04:57:37.266Z,37.45
2019-05-26T04:58:11.514Z,37.30
2019-05-26T04:58:46.662Z,38.90
2019-05-26T04:59:21.651Z,37.95
2019-05-26T04:59:55.934Z,39.25
2019-05-26T05:00:30.809Z,35.92
2019-05-26T05:01:05.898Z,35.28
2019-05-26T05:01:40.244Z,35.80
2019-05-26T05:02:15.356Z,35.85
2019-05-26T05:02:50.352Z,37.17
2019-05-26T05:03:24.510Z,39.60
2019-05-26T05:03:59.586Z,36.13
2019-05-26T05:04:34.442Z,36.05
2019-05-26T05:05:09.247Z,36.80
2019-05-26T05:05:44.088Z,38.48
2019-05-26T05:06:18.906Z,34.35
2019-05-26T05:06:53.128Z,35.78
2019-05-26T05:07:28.653Z,37.88
2019-05-26T05:08:04.047Z,38.95
2019-05-26T05:08:38.380Z,35.65
2019-05-26T05:09:13.689Z,35.63
2019-05-26T05:09:48.533Z,38.38
2019-05-26T05:10:22.919Z,37.90
2019-05-26T05:10:57.785Z,37.90
2019-05-26T05:11:32.526Z,34.15
2019-05-26T05:12:06.740Z,38.05
2019-05-26T05:12:41.924Z,38.50
2019-05-26T05:13:16.820Z,37.55
2019-05-26T05:13:51.092Z,33.85
2019-05-26T05:14:26.027Z,37.35
2019-05-26T05:15:01.028Z,37.65
2019-05-26T05:15:35.345Z,35.92
2019-05-26T05:16:10.367Z,39.00
2019-05-26T05:16:45.244Z,39.00
2019-05-26T05:17:19.523Z,41.60
2019-05-26T05:17:54.546Z,39.60
2019-05-26T05:18:29.605Z,39.05
2019-05-26T05:19:03.987Z,42.58
2019-05-26T05:19:38.862Z,47.80
2019-05-26T05:20:14.058Z,47.35
2019-05-26T05:20:48.437Z,51.15
2019-05-26T05:21:23.197Z,50.70
2019-05-26T05:21:58.112Z,40.35
2019-05-26T05:22:32.533Z,39.65
2019-05-26T05:23:07.507Z,36.68
2019-05-26T05:23:42.548Z,47.73
2019-05-26T05:24:17.559Z,47.73
2019-05-26T05:24:52.435Z,51.68
2019-05-26T05:25:27.196Z,50.78
2019-05-26T05:26:01.310Z,54.60
2019-05-26T05:26:36.232Z,56.15
2019-05-26T05:27:11.168Z,49.45
2019-05-26T05:27:45.696Z,45.55
2019-05-26T05:28:20.688Z,47.45
2019-05-26T05:28:55.686Z,43.92
2019-05-26T05:29:30.036Z,34.98
2019-05-26T05:30:06.056Z,42.75
2019-05-26T05:30:41.096Z,45.58
2019-05-26T05:31:15.588Z,36.90
2019-05-26T05:31:50.468Z,33.63
2019-05-26T05:32:25.381Z,31.80
2019-05-26T05:32:59.734Z,35.63
2019-05-26T05:33:34.649Z,35.20
2019-05-26T05:34:09.595Z,31.00
2019-05-26T05:34:43.969Z,31.65
2019-05-26T05:35:19.340Z,34.85
2019-05-26T05:35:54.316Z,37.48
2019-05-26T05:36:28.635Z,36.15
2019-05-26T05:37:03.644Z,36.17
2019-05-26T05:37:38.354Z,38.10
2019-05-26T05:38:12.755Z,34.65
2019-05-26T05:38:47.733Z,32.23
2019-05-26T05:39:22.592Z,32.65
2019-05-26T05:39:56.964Z,31.23
2019-05-26T05:40:31.716Z,36.63
2019-05-26T05:41:06.733Z,27.35
2019-05-26T05:41:41.379Z,32.73
2019-05-26T05:42:16.188Z,29.72
2019-05-26T05:42:51.193Z,36.40
2019-05-26T05:43:25.556Z,36.70
2019-05-26T05:44:00.515Z,30.40
2019-05-26T05:44:35.434Z,33.42
2019-05-26T05:45:10.086Z,40.90
2019-05-26T05:45:44.861Z,34.88
2019-05-26T05:46:19.784Z,35.35
2019-05-26T05:46:53.916Z,30.88
2019-05-26T05:47:28.581Z,31.97
2019-05-26T05:48:03.858Z,30.45
2019-05-26T05:48:38.307Z,31.73
2019-05-26T05:49:13.224Z,26.93
2019-05-26T05:49:48.089Z,31.70
2019-05-26T05:50:22.600Z,35.28
2019-05-26T05:50:57.508Z,30.65
2019-05-26T05:51:32.263Z,32.80
2019-05-26T05:52:06.403Z,31.07
2019-05-26T05:52:42.996Z,32.63
2019-05-26T05:53:17.679Z,34.88
2019-05-26T05:53:51.984Z,35.52
2019-05-26T05:54:26.807Z,31.37
2019-05-26T05:55:01.815Z,33.02
2019-05-26T05:55:36.322Z,29.75
2019-05-26T05:56:11.408Z,34.50
2019-05-26T05:56:46.350Z,30.20
2019-05-26T05:57:20.645Z,31.77
2019-05-26T05:57:55.492Z,32.55
2019-05-26T05:58:30.197Z,33.33
2019-05-26T05:59:04.699Z,33.45
2019-05-26T05:59:39.602Z,36.38
2019-05-26T06:00:15.158Z,39.48
2019-05-26T06:00:49.634Z,40.38
2019-05-26T06:01:24.399Z,34.58
2019-05-26T06:01:59.399Z,43.80
2019-05-26T06:02:33.910Z,37.35
2019-05-26T06:03:08.926Z,33.42
2019-05-26T06:03:43.845Z,31.77
2019-05-26T06:04:18.169Z,34.10
2019-05-26T06:04:53.006Z,37.30
2019-05-26T06:05:27.950Z,33.80
2019-05-26T06:06:02.399Z,30.27
2019-05-26T06:06:37.179Z,32.35
2019-05-26T06:07:12.029Z,43.40
2019-05-26T06:07:46.224Z,36.98
2019-05-26T06:08:21.211Z,40.60
2019-05-26T06:08:56.046Z,39.63
2019-05-26T06:09:30.415Z,38.83
2019-05-26T06:10:06.787Z,37.53
2019-05-26T06:10:41.756Z,41.18
2019-05-26T06:11:17.252Z,37.63
2019-05-26T06:11:56.467Z,39.90
2019-05-26T06:12:29.013Z,36.55
2019-05-26T06:13:03.339Z,43.60
2019-05-26T06:13:38.355Z,46.18
2019-05-26T06:14:13.055Z,43.15
2019-05-26T06:14:47.324Z,32.88
2019-05-26T06:15:22.555Z,44.50
2019-05-26T06:15:57.446Z,44.15
2019-05-26T06:16:31.865Z,44.25
2019-05-26T06:17:10.329Z,42.73
2019-05-26T06:17:43.223Z,38.55
2019-05-26T06:18:17.453Z,44.38
2019-05-26T06:18:52.349Z,48.65
2019-05-26T06:19:27.319Z,41.28
2019-05-26T06:20:01.575Z,44.75
2019-05-26T06:20:36.702Z,34.03
2019-05-26T06:21:11.833Z,38.00
2019-05-26T06:21:46.553Z,46.55
2019-05-26T06:22:21.473Z,39.53
2019-05-26T06:22:56.542Z,35.03
2019-05-26T06:23:30.982Z,30.77
2019-05-26T06:24:06.244Z,29.25
2019-05-26T06:24:41.022Z,25.80
2019-05-26T06:25:16.525Z,26.75
2019-05-26T06:25:51.480Z,29.12
2019-05-26T06:26:26.500Z,26.25
2019-05-26T06:27:00.733Z,26.90
2019-05-26T06:27:35.799Z,29.80
2019-05-26T06:28:10.731Z,24.55
2019-05-26T06:28:45.232Z,26.05
2019-05-26T06:29:20.256Z,28.65
2019-05-26T06:29:58.947Z,23.75
2019-05-26T06:30:31.340Z,27.32
2019-05-26T06:31:06.499Z,26.00
2019-05-26T06:31:41.421Z,25.92
2019-05-26T06:32:15.954Z,22.67
2019-05-26T06:32:51.004Z,23.77
2019-05-26T06:33:26.050Z,23.22
2019-05-26T06:34:00.433Z,21.12
2019-05-26T06:34:35.568Z,23.45
2019-05-26T06:35:11.679Z,22.70
2019-05-26T06:35:46.159Z,23.18
2019-05-26T06:36:21.188Z,23.52
2019-05-26T06:36:56.228Z,21.40
2019-05-26T06:37:30.820Z,24.40
2019-05-26T06:38:05.994Z,22.07
2019-05-26T06:38:40.914Z,21.75
2019-05-26T06:39:15.143Z,22.65
2019-05-26T06:39:49.988Z,20.72
2019-05-26T06:40:25.036Z,20.35
2019-05-26T06:40:59.404Z,21.37
2019-05-26T06:41:34.469Z,20.82
2019-05-26T06:42:12.924Z,21.35
2019-05-26T06:42:45.745Z,22.93
2019-05-26T06:43:20.700Z,22.60
2019-05-26T06:43:55.584Z,19.90
2019-05-26T06:44:29.785Z,20.82
2019-05-26T06:45:05.791Z,21.37
2019-05-26T06:45:40.482Z,20.25
2019-05-26T06:46:14.922Z,19.23
2019-05-26T06:46:49.792Z,20.95
2019-05-26T06:47:24.795Z,18.50
2019-05-26T06:47:59.064Z,18.07
2019-05-26T06:48:34.138Z,21.75
2019-05-26T06:49:08.808Z,20.02
2019-05-26T06:49:43.330Z,19.17
2019-05-26T06:50:18.603Z,15.93
2019-05-26T06:50:53.648Z,18.90
2019-05-26T06:51:27.895Z,16.60
2019-05-26T06:52:02.807Z,18.17
2019-05-26T06:52:37.603Z,19.62
2019-05-26T06:53:11.923Z,17.65
2019-05-26T06:53:46.861Z,18.20
2019-05-26T06:54:21.717Z,18.35
2019-05-26T06:54:56.032Z,21.50
2019-05-26T06:55:30.908Z,16.65
2019-05-26T06:56:05.998Z,19.05
2019-05-26T06:56:40.287Z,14.15
2019-05-26T06:57:16.808Z,15.80
2019-05-26T06:57:51.620Z,18.35
2019-05-26T06:58:25.968Z,14.55
2019-05-26T06:59:02.978Z,15.83
2019-05-26T06:59:37.597Z,11.65
2019-05-26T07:00:12.069Z,15.70
2019-05-26T07:00:46.905Z,11.97
2019-05-26T07:01:21.637Z,14.60
2019-05-26T07:01:55.847Z,17.25
2019-05-26T07:02:30.628Z,15.35
2019-05-26T07:03:05.354Z,14.80
2019-05-26T07:03:39.604Z,15.83
2019-05-26T07:04:14.306Z,14.07
2019-05-26T07:04:49.264Z,16.85
2019-05-26T07:05:23.609Z,16.60
2019-05-26T07:05:58.525Z,15.35
2019-05-26T07:06:33.303Z,15.05
2019-05-26T07:07:07.589Z,16.42
2019-05-26T07:07:42.379Z,18.92
2019-05-26T07:08:17.191Z,15.60
2019-05-26T07:08:51.546Z,14.00
2019-05-26T07:09:26.498Z,16.17
2019-05-26T07:10:01.434Z,13.93
2019-05-26T07:10:35.742Z,16.80
2019-05-26T07:11:10.697Z,16.10
2019-05-26T07:11:55.757Z,17.05
2019-05-26T07:12:21.373Z,17.80
2019-05-26T07:12:56.169Z,16.50
2019-05-26T07:13:31.102Z,16.23
2019-05-26T07:14:05.718Z,15.63
2019-05-26T07:14:40.434Z,12.78
2019-05-26T07:15:15.862Z,11.88
2019-05-26T07:15:50.058Z,13.88
2019-05-26T07:16:37.402Z,13.08
2019-05-26T07:17:01.330Z,12.60
2019-05-26T07:17:35.737Z,13.48
2019-05-26T07:18:10.553Z,12.47
2019-05-26T07:18:45.402Z,14.30
2019-05-26T07:19:19.563Z,12.47
2019-05-26T07:19:54.466Z,9.35
2019-05-26T07:20:29.362Z,12.47
2019-05-26T07:21:03.624Z,9.35
2019-05-26T07:21:38.647Z,9.60
2019-05-26T07:22:13.432Z,8.83
2019-05-26T07:22:47.770Z,10.45
2019-05-26T07:23:22.464Z,6.97
2019-05-26T07:23:57.385Z,8.40
2019-05-26T07:24:31.654Z,9.08
2019-05-26T07:25:07.522Z,6.67
2019-05-26T07:25:42.294Z,8.03
2019-05-26T07:26:16.368Z,7.42
2019-05-26T07:26:51.057Z,9.48
2019-05-26T07:27:25.861Z,6.45